sensor_id;sensor_type;location;lat;lon;timestamp;temperature;humidity
24802;DHT22;12898;50.520;12.152;2023-05-10T00:02:09;11.70;88.70
24802;DHT22;12898;50.520;12.152;2023-05-10T00:04:35;11.70;88.70
24802;DHT22;12898;50.520;12.152;2023-05-10T00:07:01;11.70;88.60
24802;DHT22;12898;50.520;12.152;2023-05-10T00:09:27;11.70;89.00
24802;DHT22;12898;50.520;12.152;2023-05-10T00:11:52;11.70;88.90
24802;DHT22;12898;50.520;12.152;2023-05-10T00:14:18;11.70;89.10
24802;DHT22;12898;50.520;12.152;2023-05-10T00:16:44;11.80;90.00
24802;DHT22;12898;50.520;12.152;2023-05-10T00:19:10;11.80;89.90
24802;DHT22;12898;50.520;12.152;2023-05-10T00:21:35;11.70;90.20
24802;DHT22;12898;50.520;12.152;2023-05-10T00:24:01;11.70;90.10
24802;DHT22;12898;50.520;12.152;2023-05-10T00:26:27;11.70;89.30
24802;DHT22;12898;50.520;12.152;2023-05-10T00:28:53;11.70;90.10
24802;DHT22;12898;50.520;12.152;2023-05-10T00:31:18;11.60;90.30
24802;DHT22;12898;50.520;12.152;2023-05-10T00:33:44;11.60;90.50
24802;DHT22;12898;50.520;12.152;2023-05-10T00:36:11;11.60;90.90
24802;DHT22;12898;50.520;12.152;2023-05-10T00:38:37;11.50;91.00
24802;DHT22;12898;50.520;12.152;2023-05-10T00:41:02;11.50;90.70
24802;DHT22;12898;50.520;12.152;2023-05-10T00:43:28;11.50;91.50
24802;DHT22;12898;50.520;12.152;2023-05-10T00:45:54;11.50;91.20
24802;DHT22;12898;50.520;12.152;2023-05-10T00:48:21;11.50;91.30
24802;DHT22;12898;50.520;12.152;2023-05-10T00:50:47;11.50;91.60
24802;DHT22;12898;50.520;12.152;2023-05-10T00:53:13;11.40;91.60
24802;DHT22;12898;50.520;12.152;2023-05-10T00:55:39;11.40;91.90
24802;DHT22;12898;50.520;12.152;2023-05-10T00:58:05;11.40;92.10
24802;DHT22;12898;50.520;12.152;2023-05-10T01:00:33;11.40;92.10
24802;DHT22;12898;50.520;12.152;2023-05-10T01:02:59;11.40;91.90
24802;DHT22;12898;50.520;12.152;2023-05-10T01:05:25;11.40;91.90
24802;DHT22;12898;50.520;12.152;2023-05-10T01:07:52;11.50;91.70
24802;DHT22;12898;50.520;12.152;2023-05-10T01:10:18;11.50;91.90
24802;DHT22;12898;50.520;12.152;2023-05-10T01:12:46;11.50;91.90
24802;DHT22;12898;50.520;12.152;2023-05-10T01:15:12;11.50;92.10
24802;DHT22;12898;50.520;12.152;2023-05-10T01:17:40;11.50;92.20
24802;DHT22;12898;50.520;12.152;2023-05-10T01:20:09;11.50;92.40
24802;DHT22;12898;50.520;12.152;2023-05-10T01:22:49;11.40;92.90
24802;DHT22;12898;50.520;12.152;2023-05-10T01:31:07;11.40;93.10
24802;DHT22;12898;50.520;12.152;2023-05-10T01:33:44;11.40;92.90
24802;DHT22;12898;50.520;12.152;2023-05-10T01:36:31;11.40;92.70
24802;DHT22;12898;50.520;12.152;2023-05-10T01:39:16;11.40;92.90
24802;DHT22;12898;50.520;12.152;2023-05-10T01:41:52;11.40;93.20
24802;DHT22;12898;50.520;12.152;2023-05-10T01:44:34;11.30;93.60
24802;DHT22;12898;50.520;12.152;2023-05-10T01:47:09;11.30;93.90
24802;DHT22;12898;50.520;12.152;2023-05-10T01:49:41;11.30;94.10
24802;DHT22;12898;50.520;12.152;2023-05-10T01:52:14;11.30;94.20
24802;DHT22;12898;50.520;12.152;2023-05-10T01:54:49;11.30;94.40
24802;DHT22;12898;50.520;12.152;2023-05-10T01:57:19;11.30;94.40
24802;DHT22;12898;50.520;12.152;2023-05-10T01:59:49;11.30;94.50
24802;DHT22;12898;50.520;12.152;2023-05-10T02:02:18;11.30;94.40
24802;DHT22;12898;50.520;12.152;2023-05-10T02:04:46;11.30;94.60
24802;DHT22;12898;50.520;12.152;2023-05-10T02:07:13;11.30;94.80
24802;DHT22;12898;50.520;12.152;2023-05-10T02:09:40;11.30;95.00
24802;DHT22;12898;50.520;12.152;2023-05-10T02:12:07;11.30;94.80
24802;DHT22;12898;50.520;12.152;2023-05-10T02:14:35;11.30;94.80
24802;DHT22;12898;50.520;12.152;2023-05-10T02:17:04;11.30;94.90
24802;DHT22;12898;50.520;12.152;2023-05-10T02:19:32;11.30;95.30
24802;DHT22;12898;50.520;12.152;2023-05-10T02:21:59;11.30;95.10
24802;DHT22;12898;50.520;12.152;2023-05-10T02:24:27;11.30;95.50
24802;DHT22;12898;50.520;12.152;2023-05-10T02:26:54;11.20;95.60
24802;DHT22;12898;50.520;12.152;2023-05-10T02:29:24;11.20;96.00
24802;DHT22;12898;50.520;12.152;2023-05-10T02:31:53;11.20;95.80
24802;DHT22;12898;50.520;12.152;2023-05-10T02:34:21;11.30;95.20
24802;DHT22;12898;50.520;12.152;2023-05-10T02:36:48;11.30;95.20
24802;DHT22;12898;50.520;12.152;2023-05-10T02:39:16;11.30;95.70
24802;DHT22;12898;50.520;12.152;2023-05-10T02:41:45;11.30;95.80
24802;DHT22;12898;50.520;12.152;2023-05-10T02:44:15;11.30;96.10
24802;DHT22;12898;50.520;12.152;2023-05-10T02:46:43;11.20;96.00
24802;DHT22;12898;50.520;12.152;2023-05-10T02:49:09;11.20;96.00
24802;DHT22;12898;50.520;12.152;2023-05-10T02:51:37;11.20;96.10
24802;DHT22;12898;50.520;12.152;2023-05-10T02:54:12;11.20;96.50
24802;DHT22;12898;50.520;12.152;2023-05-10T02:56:45;11.20;96.40
24802;DHT22;12898;50.520;12.152;2023-05-10T02:59:13;11.10;96.70
24802;DHT22;12898;50.520;12.152;2023-05-10T03:01:38;11.10;96.70
24802;DHT22;12898;50.520;12.152;2023-05-10T03:04:04;11.10;96.30
24802;DHT22;12898;50.520;12.152;2023-05-10T03:06:30;11.20;96.80
24802;DHT22;12898;50.520;12.152;2023-05-10T03:08:56;11.10;96.10
24802;DHT22;12898;50.520;12.152;2023-05-10T03:11:39;11.20;96.50
24802;DHT22;12898;50.520;12.152;2023-05-10T03:14:29;11.20;96.40
24802;DHT22;12898;50.520;12.152;2023-05-10T03:17:25;11.20;96.80
24802;DHT22;12898;50.520;12.152;2023-05-10T03:19:58;11.20;96.40
24802;DHT22;12898;50.520;12.152;2023-05-10T03:22:36;11.20;96.90
24802;DHT22;12898;50.520;12.152;2023-05-10T03:25:06;11.20;96.70
24802;DHT22;12898;50.520;12.152;2023-05-10T03:27:35;11.20;96.40
24802;DHT22;12898;50.520;12.152;2023-05-10T03:30:02;11.20;96.80
24802;DHT22;12898;50.520;12.152;2023-05-10T03:32:29;11.20;96.70
24802;DHT22;12898;50.520;12.152;2023-05-10T03:34:57;11.30;96.70
24802;DHT22;12898;50.520;12.152;2023-05-10T03:37:22;11.20;96.60
24802;DHT22;12898;50.520;12.152;2023-05-10T03:39:48;11.20;96.30
24802;DHT22;12898;50.520;12.152;2023-05-10T03:42:14;11.30;96.70
24802;DHT22;12898;50.520;12.152;2023-05-10T03:44:39;11.30;96.50
24802;DHT22;12898;50.520;12.152;2023-05-10T03:47:05;11.30;96.60
24802;DHT22;12898;50.520;12.152;2023-05-10T03:49:31;11.30;96.70
24802;DHT22;12898;50.520;12.152;2023-05-10T03:51:57;11.30;97.20
24802;DHT22;12898;50.520;12.152;2023-05-10T03:54:23;11.30;96.80
24802;DHT22;12898;50.520;12.152;2023-05-10T03:56:48;11.30;96.70
24802;DHT22;12898;50.520;12.152;2023-05-10T03:59:14;11.30;97.20
24802;DHT22;12898;50.520;12.152;2023-05-10T04:01:40;11.30;97.30
24802;DHT22;12898;50.520;12.152;2023-05-10T04:04:05;11.30;97.10
24802;DHT22;12898;50.520;12.152;2023-05-10T04:06:31;11.30;96.80
24802;DHT22;12898;50.520;12.152;2023-05-10T04:08:57;11.30;97.10
24802;DHT22;12898;50.520;12.152;2023-05-10T04:11:25;11.30;97.50
24802;DHT22;12898;50.520;12.152;2023-05-10T04:13:51;11.30;96.90
24802;DHT22;12898;50.520;12.152;2023-05-10T04:16:16;11.30;96.70
24802;DHT22;12898;50.520;12.152;2023-05-10T04:18:42;11.40;97.10
24802;DHT22;12898;50.520;12.152;2023-05-10T04:21:12;11.40;96.70
24802;DHT22;12898;50.520;12.152;2023-05-10T04:23:38;11.40;97.10
24802;DHT22;12898;50.520;12.152;2023-05-10T04:26:04;11.40;97.00
24802;DHT22;12898;50.520;12.152;2023-05-10T04:28:30;11.40;97.00
24802;DHT22;12898;50.520;12.152;2023-05-10T04:31:07;11.40;96.60
24802;DHT22;12898;50.520;12.152;2023-05-10T04:33:34;11.50;96.90
24802;DHT22;12898;50.520;12.152;2023-05-10T04:36:01;11.50;97.40
24802;DHT22;12898;50.520;12.152;2023-05-10T04:38:27;11.50;97.20
24802;DHT22;12898;50.520;12.152;2023-05-10T04:40:53;11.50;97.10
24802;DHT22;12898;50.520;12.152;2023-05-10T04:43:19;11.40;96.50
24802;DHT22;12898;50.520;12.152;2023-05-10T04:45:45;11.50;96.80
24802;DHT22;12898;50.520;12.152;2023-05-10T04:48:11;11.50;97.30
24802;DHT22;12898;50.520;12.152;2023-05-10T04:50:37;11.50;97.30
24802;DHT22;12898;50.520;12.152;2023-05-10T04:53:04;11.50;97.20
24802;DHT22;12898;50.520;12.152;2023-05-10T04:55:30;11.50;97.50
24802;DHT22;12898;50.520;12.152;2023-05-10T04:57:56;11.60;97.50
24802;DHT22;12898;50.520;12.152;2023-05-10T05:00:23;11.60;97.00
24802;DHT22;12898;50.520;12.152;2023-05-10T05:02:48;11.60;97.00
24802;DHT22;12898;50.520;12.152;2023-05-10T05:05:14;11.70;96.90
24802;DHT22;12898;50.520;12.152;2023-05-10T05:07:40;11.80;97.20
24802;DHT22;12898;50.520;12.152;2023-05-10T05:10:07;11.80;96.70
24802;DHT22;12898;50.520;12.152;2023-05-10T05:12:34;11.90;96.80
24802;DHT22;12898;50.520;12.152;2023-05-10T05:15:01;11.90;97.20
24802;DHT22;12898;50.520;12.152;2023-05-10T05:17:27;12.00;97.30
24802;DHT22;12898;50.520;12.152;2023-05-10T05:19:55;12.10;96.40
24802;DHT22;12898;50.520;12.152;2023-05-10T05:22:22;12.10;96.60
24802;DHT22;12898;50.520;12.152;2023-05-10T05:24:54;12.20;96.00
24802;DHT22;12898;50.520;12.152;2023-05-10T05:27:20;12.20;96.40
24802;DHT22;12898;50.520;12.152;2023-05-10T05:29:50;12.30;96.70
24802;DHT22;12898;50.520;12.152;2023-05-10T05:32:17;12.40;95.90
24802;DHT22;12898;50.520;12.152;2023-05-10T05:34:45;12.40;95.90
24802;DHT22;12898;50.520;12.152;2023-05-10T05:37:15;12.50;95.80
24802;DHT22;12898;50.520;12.152;2023-05-10T05:39:42;12.50;95.40
24802;DHT22;12898;50.520;12.152;2023-05-10T05:42:12;12.50;96.30
24802;DHT22;12898;50.520;12.152;2023-05-10T05:44:39;12.50;96.10
24802;DHT22;12898;50.520;12.152;2023-05-10T05:47:05;12.60;95.70
24802;DHT22;12898;50.520;12.152;2023-05-10T05:49:31;12.50;95.70
24802;DHT22;12898;50.520;12.152;2023-05-10T05:52:01;12.50;96.30
24802;DHT22;12898;50.520;12.152;2023-05-10T05:54:29;12.50;95.80
24802;DHT22;12898;50.520;12.152;2023-05-10T05:56:56;12.50;96.60
24802;DHT22;12898;50.520;12.152;2023-05-10T05:59:23;12.60;95.80
24802;DHT22;12898;50.520;12.152;2023-05-10T06:01:49;12.60;95.60
24802;DHT22;12898;50.520;12.152;2023-05-10T06:04:15;12.70;95.70
24802;DHT22;12898;50.520;12.152;2023-05-10T06:06:41;12.70;95.80
24802;DHT22;12898;50.520;12.152;2023-05-10T06:09:07;12.70;95.80
24802;DHT22;12898;50.520;12.152;2023-05-10T06:11:34;12.70;95.30
24802;DHT22;12898;50.520;12.152;2023-05-10T06:14:00;12.70;96.00
24802;DHT22;12898;50.520;12.152;2023-05-10T06:16:27;12.60;96.10
24802;DHT22;12898;50.520;12.152;2023-05-10T06:18:53;12.50;97.10
24802;DHT22;12898;50.520;12.152;2023-05-10T06:21:18;12.40;97.30
24802;DHT22;12898;50.520;12.152;2023-05-10T06:23:44;12.20;99.90
24802;DHT22;12898;50.520;12.152;2023-05-10T06:26:10;12.10;99.90
24802;DHT22;12898;50.520;12.152;2023-05-10T06:28:36;12.00;99.90
24802;DHT22;12898;50.520;12.152;2023-05-10T06:31:04;11.90;99.90
24802;DHT22;12898;50.520;12.152;2023-05-10T06:33:30;11.80;99.90
24802;DHT22;12898;50.520;12.152;2023-05-10T06:35:56;11.70;99.90
24802;DHT22;12898;50.520;12.152;2023-05-10T06:38:22;11.60;99.90
24802;DHT22;12898;50.520;12.152;2023-05-10T06:40:48;11.50;99.90
24802;DHT22;12898;50.520;12.152;2023-05-10T06:43:14;11.40;99.90
24802;DHT22;12898;50.520;12.152;2023-05-10T06:45:40;11.40;99.90
24802;DHT22;12898;50.520;12.152;2023-05-10T06:48:06;11.30;99.90
24802;DHT22;12898;50.520;12.152;2023-05-10T06:50:32;11.30;99.90
24802;DHT22;12898;50.520;12.152;2023-05-10T06:52:58;11.20;99.90
24802;DHT22;12898;50.520;12.152;2023-05-10T06:55:25;11.20;99.90
24802;DHT22;12898;50.520;12.152;2023-05-10T06:57:51;11.20;99.90
24802;DHT22;12898;50.520;12.152;2023-05-10T07:00:18;11.10;99.90
24802;DHT22;12898;50.520;12.152;2023-05-10T07:02:45;11.10;99.90
24802;DHT22;12898;50.520;12.152;2023-05-10T07:05:12;11.00;99.90
24802;DHT22;12898;50.520;12.152;2023-05-10T07:07:37;11.00;99.90
24802;DHT22;12898;50.520;12.152;2023-05-10T07:10:08;11.00;99.90
24802;DHT22;12898;50.520;12.152;2023-05-10T07:12:38;10.90;99.90
24802;DHT22;12898;50.520;12.152;2023-05-10T07:15:09;10.90;99.90
24802;DHT22;12898;50.520;12.152;2023-05-10T07:17:35;11.00;99.90
24802;DHT22;12898;50.520;12.152;2023-05-10T07:20:01;11.10;99.90
24802;DHT22;12898;50.520;12.152;2023-05-10T07:22:27;11.20;99.90
24802;DHT22;12898;50.520;12.152;2023-05-10T07:24:54;11.30;99.90
24802;DHT22;12898;50.520;12.152;2023-05-10T07:27:20;11.50;99.90
24802;DHT22;12898;50.520;12.152;2023-05-10T07:29:46;11.60;99.90
24802;DHT22;12898;50.520;12.152;2023-05-10T07:32:11;11.70;99.90
24802;DHT22;12898;50.520;12.152;2023-05-10T07:34:37;11.80;99.90
24802;DHT22;12898;50.520;12.152;2023-05-10T07:37:03;11.90;99.90
24802;DHT22;12898;50.520;12.152;2023-05-10T07:39:28;12.00;99.90
24802;DHT22;12898;50.520;12.152;2023-05-10T07:41:57;12.00;99.90
24802;DHT22;12898;50.520;12.152;2023-05-10T07:44:23;12.00;99.90
24802;DHT22;12898;50.520;12.152;2023-05-10T07:46:49;11.90;99.90
24802;DHT22;12898;50.520;12.152;2023-05-10T07:49:14;11.80;99.90
24802;DHT22;12898;50.520;12.152;2023-05-10T07:51:41;11.70;99.90
24802;DHT22;12898;50.520;12.152;2023-05-10T07:54:07;11.70;99.90
24802;DHT22;12898;50.520;12.152;2023-05-10T07:56:33;11.70;99.90
24802;DHT22;12898;50.520;12.152;2023-05-10T07:59:00;11.70;99.90
24802;DHT22;12898;50.520;12.152;2023-05-10T08:01:26;11.70;99.90
24802;DHT22;12898;50.520;12.152;2023-05-10T08:03:55;11.70;99.90
24802;DHT22;12898;50.520;12.152;2023-05-10T08:06:21;11.70;99.90
24802;DHT22;12898;50.520;12.152;2023-05-10T08:08:48;11.70;99.90
24802;DHT22;12898;50.520;12.152;2023-05-10T08:11:22;11.60;99.90
24802;DHT22;12898;50.520;12.152;2023-05-10T08:13:49;11.40;99.90
24802;DHT22;12898;50.520;12.152;2023-05-10T08:16:16;11.50;99.90
24802;DHT22;12898;50.520;12.152;2023-05-10T08:18:43;11.50;99.90
24802;DHT22;12898;50.520;12.152;2023-05-10T08:21:10;11.50;99.90
24802;DHT22;12898;50.520;12.152;2023-05-10T08:23:39;11.60;99.90
24802;DHT22;12898;50.520;12.152;2023-05-10T08:26:04;11.70;99.90
24802;DHT22;12898;50.520;12.152;2023-05-10T08:28:30;11.80;99.90
24802;DHT22;12898;50.520;12.152;2023-05-10T08:30:56;12.00;99.90
24802;DHT22;12898;50.520;12.152;2023-05-10T08:33:22;12.10;99.90
24802;DHT22;12898;50.520;12.152;2023-05-10T08:35:50;12.20;99.90
24802;DHT22;12898;50.520;12.152;2023-05-10T08:38:17;12.50;99.90
24802;DHT22;12898;50.520;12.152;2023-05-10T08:40:43;12.60;99.90
24802;DHT22;12898;50.520;12.152;2023-05-10T08:43:12;12.80;99.90
24802;DHT22;12898;50.520;12.152;2023-05-10T08:45:41;13.00;99.90
24802;DHT22;12898;50.520;12.152;2023-05-10T08:48:09;13.10;99.90
24802;DHT22;12898;50.520;12.152;2023-05-10T08:50:44;13.30;99.90
24802;DHT22;12898;50.520;12.152;2023-05-10T08:53:12;13.40;99.90
24802;DHT22;12898;50.520;12.152;2023-05-10T08:55:39;13.50;99.90
24802;DHT22;12898;50.520;12.152;2023-05-10T08:58:07;13.70;99.90
24802;DHT22;12898;50.520;12.152;2023-05-10T09:00:34;13.80;99.90
24802;DHT22;12898;50.520;12.152;2023-05-10T09:03:02;13.90;99.90
24802;DHT22;12898;50.520;12.152;2023-05-10T09:05:28;14.00;99.90
24802;DHT22;12898;50.520;12.152;2023-05-10T09:07:54;14.00;99.90
24802;DHT22;12898;50.520;12.152;2023-05-10T09:10:20;13.90;99.90
24802;DHT22;12898;50.520;12.152;2023-05-10T09:12:48;13.80;99.90
24802;DHT22;12898;50.520;12.152;2023-05-10T09:15:17;13.60;99.90
24802;DHT22;12898;50.520;12.152;2023-05-10T09:17:45;13.60;99.90
24802;DHT22;12898;50.520;12.152;2023-05-10T09:20:11;13.60;99.90
24802;DHT22;12898;50.520;12.152;2023-05-10T09:22:37;13.60;99.90
24802;DHT22;12898;50.520;12.152;2023-05-10T09:25:12;13.70;99.90
24802;DHT22;12898;50.520;12.152;2023-05-10T09:27:40;13.70;99.90
24802;DHT22;12898;50.520;12.152;2023-05-10T09:30:15;13.70;99.90
24802;DHT22;12898;50.520;12.152;2023-05-10T09:32:43;13.70;99.90
24802;DHT22;12898;50.520;12.152;2023-05-10T09:35:16;13.70;99.90
24802;DHT22;12898;50.520;12.152;2023-05-10T09:37:45;13.70;99.90
24802;DHT22;12898;50.520;12.152;2023-05-10T09:40:15;13.80;99.90
24802;DHT22;12898;50.520;12.152;2023-05-10T09:42:56;14.00;99.90
24802;DHT22;12898;50.520;12.152;2023-05-10T09:45:32;14.00;99.90
24802;DHT22;12898;50.520;12.152;2023-05-10T09:48:01;13.90;99.90
24802;DHT22;12898;50.520;12.152;2023-05-10T09:50:29;13.90;99.90
24802;DHT22;12898;50.520;12.152;2023-05-10T09:53:00;13.90;99.90
24802;DHT22;12898;50.520;12.152;2023-05-10T09:55:45;13.90;99.90
24802;DHT22;12898;50.520;12.152;2023-05-10T09:58:15;13.90;99.90
24802;DHT22;12898;50.520;12.152;2023-05-10T10:00:43;13.90;99.90
24802;DHT22;12898;50.520;12.152;2023-05-10T10:03:14;14.00;99.90
24802;DHT22;12898;50.520;12.152;2023-05-10T10:05:41;14.20;99.90
24802;DHT22;12898;50.520;12.152;2023-05-10T10:08:09;14.30;99.90
24802;DHT22;12898;50.520;12.152;2023-05-10T10:10:35;14.40;99.90
24802;DHT22;12898;50.520;12.152;2023-05-10T10:13:01;14.50;99.90
24802;DHT22;12898;50.520;12.152;2023-05-10T10:15:27;14.50;99.90
24802;DHT22;12898;50.520;12.152;2023-05-10T10:17:54;14.60;99.90
24802;DHT22;12898;50.520;12.152;2023-05-10T10:20:20;14.70;99.90
24802;DHT22;12898;50.520;12.152;2023-05-10T10:22:48;14.70;99.90
24802;DHT22;12898;50.520;12.152;2023-05-10T10:25:18;14.70;99.90
24802;DHT22;12898;50.520;12.152;2023-05-10T10:35:32;14.70;99.90
24802;DHT22;12898;50.520;12.152;2023-05-10T10:37:58;14.70;99.90
24802;DHT22;12898;50.520;12.152;2023-05-10T10:40:32;14.60;99.90
24802;DHT22;12898;50.520;12.152;2023-05-10T10:43:25;14.60;99.90
24802;DHT22;12898;50.520;12.152;2023-05-10T10:46:11;14.70;99.90
24802;DHT22;12898;50.520;12.152;2023-05-10T10:48:41;14.80;99.90
24802;DHT22;12898;50.520;12.152;2023-05-10T10:51:09;14.90;99.90
24802;DHT22;12898;50.520;12.152;2023-05-10T10:53:37;14.90;99.90
24802;DHT22;12898;50.520;12.152;2023-05-10T10:56:13;14.90;99.90
24802;DHT22;12898;50.520;12.152;2023-05-10T10:58:41;15.00;99.90
24802;DHT22;12898;50.520;12.152;2023-05-10T11:01:17;14.80;99.90
24802;DHT22;12898;50.520;12.152;2023-05-10T11:06:36;15.10;99.90
24802;DHT22;12898;50.520;12.152;2023-05-10T11:09:10;15.30;99.90
24802;DHT22;12898;50.520;12.152;2023-05-10T11:11:49;15.50;99.90
24802;DHT22;12898;50.520;12.152;2023-05-10T11:14:21;15.50;99.90
24802;DHT22;12898;50.520;12.152;2023-05-10T11:16:47;15.50;99.90
24802;DHT22;12898;50.520;12.152;2023-05-10T11:19:14;15.50;99.90
24802;DHT22;12898;50.520;12.152;2023-05-10T11:24:22;15.50;99.90
24802;DHT22;12898;50.520;12.152;2023-05-10T11:26:51;15.60;99.90
24802;DHT22;12898;50.520;12.152;2023-05-10T11:29:17;15.60;99.90
24802;DHT22;12898;50.520;12.152;2023-05-10T11:31:44;15.80;99.90
24802;DHT22;12898;50.520;12.152;2023-05-10T11:34:11;15.90;99.90
24802;DHT22;12898;50.520;12.152;2023-05-10T11:36:37;16.00;99.90
24802;DHT22;12898;50.520;12.152;2023-05-10T11:39:04;16.10;99.90
24802;DHT22;12898;50.520;12.152;2023-05-10T11:41:31;16.30;99.90
24802;DHT22;12898;50.520;12.152;2023-05-10T11:43:59;16.40;99.90
24802;DHT22;12898;50.520;12.152;2023-05-10T11:46:31;16.50;99.90
24802;DHT22;12898;50.520;12.152;2023-05-10T11:49:00;16.60;99.90
24802;DHT22;12898;50.520;12.152;2023-05-10T11:51:29;16.60;99.90
24802;DHT22;12898;50.520;12.152;2023-05-10T11:53:59;16.70;99.90
24802;DHT22;12898;50.520;12.152;2023-05-10T11:56:25;16.80;99.90
24802;DHT22;12898;50.520;12.152;2023-05-10T11:58:56;16.90;99.90
24802;DHT22;12898;50.520;12.152;2023-05-10T12:01:24;16.90;99.90
24802;DHT22;12898;50.520;12.152;2023-05-10T12:03:54;16.80;99.90
24802;DHT22;12898;50.520;12.152;2023-05-10T12:06:27;16.80;99.90
24802;DHT22;12898;50.520;12.152;2023-05-10T12:08:54;16.70;99.90
24802;DHT22;12898;50.520;12.152;2023-05-10T12:11:20;16.60;99.90
24802;DHT22;12898;50.520;12.152;2023-05-10T12:13:50;16.60;99.90
24802;DHT22;12898;50.520;12.152;2023-05-10T12:18:43;16.60;99.90
24802;DHT22;12898;50.520;12.152;2023-05-10T12:21:11;16.60;99.90
24802;DHT22;12898;50.520;12.152;2023-05-10T12:23:38;16.60;99.90
24802;DHT22;12898;50.520;12.152;2023-05-10T12:26:05;16.70;99.90
24802;DHT22;12898;50.520;12.152;2023-05-10T12:28:34;16.70;99.90
24802;DHT22;12898;50.520;12.152;2023-05-10T12:31:01;16.80;99.90
24802;DHT22;12898;50.520;12.152;2023-05-10T12:33:38;16.80;99.90
24802;DHT22;12898;50.520;12.152;2023-05-10T12:36:12;16.90;99.90
24802;DHT22;12898;50.520;12.152;2023-05-10T12:38:43;16.80;99.90
24802;DHT22;12898;50.520;12.152;2023-05-10T12:41:14;16.60;99.90
24802;DHT22;12898;50.520;12.152;2023-05-10T12:43:41;16.50;99.90
24802;DHT22;12898;50.520;12.152;2023-05-10T12:46:14;16.40;99.90
24802;DHT22;12898;50.520;12.152;2023-05-10T12:48:43;16.30;99.90
24802;DHT22;12898;50.520;12.152;2023-05-10T12:51:10;16.10;99.90
24802;DHT22;12898;50.520;12.152;2023-05-10T12:53:42;15.90;99.90
24802;DHT22;12898;50.520;12.152;2023-05-10T12:56:08;15.80;99.90
24802;DHT22;12898;50.520;12.152;2023-05-10T12:58:34;15.60;99.90
24802;DHT22;12898;50.520;12.152;2023-05-10T13:01:00;15.40;99.90
24802;DHT22;12898;50.520;12.152;2023-05-10T13:03:26;15.30;99.90
24802;DHT22;12898;50.520;12.152;2023-05-10T13:05:52;15.20;99.90
24802;DHT22;12898;50.520;12.152;2023-05-10T13:08:19;15.10;99.90
24802;DHT22;12898;50.520;12.152;2023-05-10T13:10:45;15.10;99.90
24802;DHT22;12898;50.520;12.152;2023-05-10T13:13:14;15.10;99.90
24802;DHT22;12898;50.520;12.152;2023-05-10T13:15:39;15.20;99.90
24802;DHT22;12898;50.520;12.152;2023-05-10T13:18:05;15.20;99.90
24802;DHT22;12898;50.520;12.152;2023-05-10T13:20:32;15.20;99.90
24802;DHT22;12898;50.520;12.152;2023-05-10T13:22:58;15.30;99.90
24802;DHT22;12898;50.520;12.152;2023-05-10T13:25:24;15.30;99.90
24802;DHT22;12898;50.520;12.152;2023-05-10T13:27:49;15.30;99.90
24802;DHT22;12898;50.520;12.152;2023-05-10T13:30:15;15.30;99.90
24802;DHT22;12898;50.520;12.152;2023-05-10T13:32:41;15.40;99.90
24802;DHT22;12898;50.520;12.152;2023-05-10T13:35:07;15.40;99.90
24802;DHT22;12898;50.520;12.152;2023-05-10T13:37:36;15.50;99.90
24802;DHT22;12898;50.520;12.152;2023-05-10T13:40:03;15.50;99.90
24802;DHT22;12898;50.520;12.152;2023-05-10T13:42:30;15.60;99.90
24802;DHT22;12898;50.520;12.152;2023-05-10T13:44:57;15.70;99.90
24802;DHT22;12898;50.520;12.152;2023-05-10T13:47:22;15.80;99.90
24802;DHT22;12898;50.520;12.152;2023-05-10T13:49:48;16.00;99.90
24802;DHT22;12898;50.520;12.152;2023-05-10T13:52:15;16.10;99.90
24802;DHT22;12898;50.520;12.152;2023-05-10T13:54:40;16.20;99.90
24802;DHT22;12898;50.520;12.152;2023-05-10T13:57:06;16.30;99.90
24802;DHT22;12898;50.520;12.152;2023-05-10T13:59:36;16.40;99.90
24802;DHT22;12898;50.520;12.152;2023-05-10T14:02:01;16.30;99.90
24802;DHT22;12898;50.520;12.152;2023-05-10T14:04:28;16.30;99.90
24802;DHT22;12898;50.520;12.152;2023-05-10T14:06:54;16.30;99.90
24802;DHT22;12898;50.520;12.152;2023-05-10T14:09:20;16.30;99.90
24802;DHT22;12898;50.520;12.152;2023-05-10T14:11:46;16.20;99.90
24802;DHT22;12898;50.520;12.152;2023-05-10T14:14:12;16.10;99.90
24802;DHT22;12898;50.520;12.152;2023-05-10T14:16:44;16.00;99.90
24802;DHT22;12898;50.520;12.152;2023-05-10T14:19:10;16.00;99.90
24802;DHT22;12898;50.520;12.152;2023-05-10T14:21:36;16.10;99.90
24802;DHT22;12898;50.520;12.152;2023-05-10T14:24:02;16.10;99.90
24802;DHT22;12898;50.520;12.152;2023-05-10T14:26:30;16.10;99.90
24802;DHT22;12898;50.520;12.152;2023-05-10T14:28:56;16.10;99.90
24802;DHT22;12898;50.520;12.152;2023-05-10T14:31:22;16.10;99.90
24802;DHT22;12898;50.520;12.152;2023-05-10T14:33:49;16.00;99.90
24802;DHT22;12898;50.520;12.152;2023-05-10T14:36:15;15.90;99.90
24802;DHT22;12898;50.520;12.152;2023-05-10T14:38:44;15.80;99.90
24802;DHT22;12898;50.520;12.152;2023-05-10T14:41:10;15.80;99.90
24802;DHT22;12898;50.520;12.152;2023-05-10T14:43:39;15.70;99.90
24802;DHT22;12898;50.520;12.152;2023-05-10T14:46:05;15.60;99.90
24802;DHT22;12898;50.520;12.152;2023-05-10T14:48:31;15.60;99.90
24802;DHT22;12898;50.520;12.152;2023-05-10T14:50:57;15.60;99.90
24802;DHT22;12898;50.520;12.152;2023-05-10T14:53:22;15.50;99.90
24802;DHT22;12898;50.520;12.152;2023-05-10T14:55:48;15.50;99.90
24802;DHT22;12898;50.520;12.152;2023-05-10T14:58:14;15.60;99.90
24802;DHT22;12898;50.520;12.152;2023-05-10T15:00:40;15.60;99.90
24802;DHT22;12898;50.520;12.152;2023-05-10T15:03:09;15.60;99.90
24802;DHT22;12898;50.520;12.152;2023-05-10T15:05:35;15.70;99.90
24802;DHT22;12898;50.520;12.152;2023-05-10T15:08:03;15.80;99.90
24802;DHT22;12898;50.520;12.152;2023-05-10T15:10:30;15.80;99.90
24802;DHT22;12898;50.520;12.152;2023-05-10T15:12:57;15.90;99.90
24802;DHT22;12898;50.520;12.152;2023-05-10T15:15:23;15.90;99.90
24802;DHT22;12898;50.520;12.152;2023-05-10T15:17:49;15.90;99.90
24802;DHT22;12898;50.520;12.152;2023-05-10T15:20:15;15.90;99.90
24802;DHT22;12898;50.520;12.152;2023-05-10T15:22:40;15.90;99.90
24802;DHT22;12898;50.520;12.152;2023-05-10T15:25:07;15.90;99.90
24802;DHT22;12898;50.520;12.152;2023-05-10T15:27:33;15.80;99.90
24802;DHT22;12898;50.520;12.152;2023-05-10T15:30:00;15.80;99.90
24802;DHT22;12898;50.520;12.152;2023-05-10T15:32:26;15.90;99.90
24802;DHT22;12898;50.520;12.152;2023-05-10T15:34:52;15.90;99.90
24802;DHT22;12898;50.520;12.152;2023-05-10T15:37:17;15.90;99.90
24802;DHT22;12898;50.520;12.152;2023-05-10T15:39:44;15.80;99.90
24802;DHT22;12898;50.520;12.152;2023-05-10T15:42:09;15.80;99.90